Station PAUA2 - ST PAUL MXAK, AK Image indicating link to RSS feed of recent meteorological observations for station PAUA2


Conditions at PAUA2 as of
0825 GMT on 06/14/2024:
     

Click on the graph icon in the table below to see a time series plot of the last five days of that observation.

5-day plot - Wind Direction Wind Direction (WDIR):ESE ( 120 deg true )
5-day plot - Wind Speed Wind Speed (WSPD): 11.1 kts
5-day plot - Wind Gust Wind Gust (GST): 14.0 kts
5-day plot - Air Temperature Air Temperature (ATMP): 37.9 °F
5-day plot - Dew Point Dew Point (DEWP): 37.9 °F
5-day plot - Wind Chill Wind Chill (CHILL): 30.0 °F
5-day plot - Wind Speed at 10 Meters Wind Speed at 10 meters (WSPD10M): 9.7 kts
5-day plot - Wind Speed at 20 Meters Wind Speed at 20 meters (WSPD20M): 11.7 kts
5-day plot -  Wind Speed, Wind Gust and Atmospheric Pressure Combined plot of Wind Speed, Gust, and Air Pressure
Previous observations
TIME
(GMT)
5-day plot - Wind Direction
WDIR
 
5-day plot - Wind Speed
WSPD
kts
5-day plot - Wind Gust
GST
kts
5-day plot - Wave Height
WVHT
ft
5-day plot - Dominant Wave Period
DPD
sec
5-day plot - Average Wave Period
APD
sec
5-day plot - Mean Wave Direction
MWD
 
5-day plot - Atmospheric Pressure
PRES
in
5-day plot - Pressure Tendency
PTDY
in
5-day plot - Air Temperature
ATMP
°F
5-day plot - Water Temperature
WTMP
°F
5-day plot - Dew Point
DEWP
°F
5-day plot - Salinity
SAL
psu
5-day plot - Visibility
VIS
nmi
5-day plot - Tide (above MLLW)
TIDE
ft
2024-06-14 0816ESE 11.1 13.0------ 38.1- 38.1---
2024-06-14 0805ESE 12.0 15.0------ 38.3- 38.3---
2024-06-14 0755ESE 12.0 14.0------ 38.3- 38.3---
2024-06-14 0745ESE 12.0 15.0------ 38.1- 38.1---
2024-06-14 0725ESE 11.1 13.0------ 37.9- 37.9---
2024-06-14 0715ESE 9.9 13.0------ 38.1- 38.1---
2024-06-14 0705ESE 11.1 15.9------ 38.5- 38.5---
2024-06-14 0655ESE 12.0 15.0------ 38.7- 38.7---
2024-06-14 0645ESE 12.0 15.0------ 38.5- 38.5---
2024-06-14 0635ESE 12.0 15.0------ 38.3- 38.3---
2024-06-14 0625ESE 9.9 13.0------ 38.1- 38.1---
2024-06-14 0615ESE 11.1 14.0------ 38.1- 38.1---
2024-06-14 0605ESE 12.0 14.0------ 38.1- 38.1---
2024-06-14 0555 E 12.0 14.0------ 38.1- 38.1---
2024-06-14 0545 E 12.0 14.0------ 38.3- 38.3---
2024-06-14 0535 E 12.0 15.9------ 38.3- 38.3---
2024-06-14 0525 E 13.0 15.0------ 38.3- 38.3---
2024-06-14 0515 E 11.1 14.0------ 38.3- 38.3---
2024-06-14 0505 E 11.1 13.0------ 38.3- 38.3---
2024-06-14 0456 E 11.1 14.0------ 38.5- 38.5---
2024-06-14 0446 E 11.1 14.0------ 38.5- 38.5---
2024-06-14 0436 E 12.0 13.0------ 38.5- 38.5---
2024-06-14 0425 E 12.0 14.0------ 38.5- 38.5---
2024-06-14 0415 E 12.0 14.0------ 38.7- 38.7---
2024-06-14 0405 E 12.0 14.0------ 38.5- 38.5---
2024-06-14 0355 E 12.0 14.0------ 38.7- 38.7---
2024-06-14 0345 E 12.0 14.0------ 38.8- 38.8---
2024-06-14 0335 E 12.0 14.0------ 39.0- 39.0---
2024-06-14 0325 E 12.0 14.0------ 39.6- 39.6---
2024-06-14 0315 E 11.1 14.0------ 39.4- 39.4---
2024-06-14 0305 E 11.1 13.0------ 39.6- 39.6---
2024-06-14 0255 E 11.1 13.0------ 39.9- 39.9---
2024-06-14 0235 E 9.9 12.0------ 40.3- 40.3---
2024-06-14 0225 E 9.9 12.0------ 39.9- 39.9---
2024-06-14 0215 E 8.9 11.1------ 40.3- 40.1---
2024-06-14 0205 E 8.9 11.1------ 40.3- 40.3---
2024-06-14 0155 E 9.9 12.0------ 39.7- 39.7---
2024-06-14 0145 E 11.1 12.0------ 39.7- 39.7---
2024-06-14 0135ESE 8.9 12.0------ 40.1- 40.1---
2024-06-14 0125ESE 9.9 12.0------ 39.9- 39.9---
2024-06-14 0115ESE 9.9 12.0------ 39.7- 39.7---
2024-06-14 0105ESE 9.9 12.0------ 39.4- 39.4---
2024-06-14 0055ESE 8.9 11.1------ 39.2- 39.2---
2024-06-14 0045ESE 8.9 11.1------ 39.0- 39.0---
2024-06-14 0035ESE 8.9 11.1------ 39.0- 39.0---
2024-06-14 0025ESE 9.9 12.0------ 39.4- 39.4---
2024-06-14 0015ESE 9.9 12.0------ 39.4- 39.4---
2024-06-13 2355ESE 9.9 12.0------ 39.2- 39.2---
2024-06-13 2335 E 9.9 11.1------ 39.9- 39.9---
2024-06-13 2325 E 9.9 12.0------ 39.9- 39.9---
2024-06-13 2315ESE 8.9 11.1------ 40.5- 40.1---
2024-06-13 2305ESE 8.9 12.0------ 42.1- 41.0---
2024-06-13 2255ESE 9.9 11.1------ 42.1- 41.5---
2024-06-13 2245ESE 9.9 12.0------ 41.5- 41.5---
2024-06-13 2235ESE 9.9 12.0------ 40.8- 40.8---
2024-06-13 2225ESE 8.9 12.0------ 41.4- 41.4---
2024-06-13 2215 SE 9.9 12.0------ 41.2- 41.2---
2024-06-13 2205 SE 9.9 12.0------ 40.8- 40.8---
2024-06-13 2155 SE 9.9 11.1------ 40.3- 40.3---
2024-06-13 2145 SE 8.9 11.1------ 39.7- 39.7---
2024-06-13 2135ESE 8.9 11.1------ 39.7- 39.7---
2024-06-13 2125 SE 8.9 9.9------ 39.9- 39.9---
2024-06-13 2115 SE 6.0 8.9------ 40.1- 40.1---
2024-06-13 2105 SE 4.1 8.9------ 39.6- 39.6---
2024-06-13 2055 SE 4.1 9.9------ 39.0- 39.0---
2024-06-13 2045 SE 6.0 9.9------ 38.7- 38.7---
2024-06-13 2035 SE 8.0 12.0------ 38.8- 38.8---
2024-06-13 2025 SE 8.0 12.0------ 38.8- 38.8---
2024-06-13 2015 SE 8.0 9.9------ 38.7- 38.7---
2024-06-13 2005 SE 8.9 11.1------ 38.7- 38.7---
2024-06-13 1955 SE 6.0 9.9------ 38.3- 38.3---
2024-06-13 1945 SE 6.0 9.9------ 38.3- 38.3---
2024-06-13 1936 SE 5.1 8.0------ 37.9- 37.9---
2024-06-13 1925 SE 5.1 8.0------ 37.8- 37.8---
2024-06-13 1915 SE 4.1 8.9------ 37.8- 37.8---
2024-06-13 1905 SE 2.9 8.0------ 37.8- 37.8---
2024-06-13 1855 SE 2.9 7.0------ 37.8- 37.8---
2024-06-13 1845NNE 1.9 5.1------ 37.9- 37.9---
2024-06-13 1835ESE 1.9 5.1------ 37.6- 37.6---
2024-06-13 1825ESE 1.9 8.0------ 37.6- 37.6---
2024-06-13 1815ENE 1.9 7.0------ 37.4- 37.4---
2024-06-13 1805ESE 1.9 7.0------ 37.4- 37.4---
2024-06-13 1755 NE 1.9 6.0------ 37.6- 37.6---
2024-06-13 1745 SE 4.1 8.9------ 37.4- 37.4---
2024-06-13 1735 SE 4.1 8.0------ 37.2- 37.2---
2024-06-13 1725 SE 4.1 8.0------ 37.2- 37.2---
2024-06-13 1715 SE 5.1 8.9------ 37.4- 37.4---
2024-06-13 1705 SE 5.1 9.9------ 37.4- 37.4---
2024-06-13 1645 SE 5.1 11.1------ 37.4- 37.4---
2024-06-13 1635 SE 7.0 9.9------ 37.6- 37.6---
2024-06-13 1625ESE 8.0 9.9------ 37.4- 37.4---
2024-06-13 1615ESE 8.0 8.9------ 37.2- 37.2---
2024-06-13 1605ESE 7.0 8.9------ 37.0- 37.0---
2024-06-13 1555ESE 6.0 7.0------ 37.2- 37.2---
2024-06-13 1545 SE 4.1 6.0------ 37.2- 37.2---
2024-06-13 1535ESE 2.9 7.0------ 37.2- 37.2---
2024-06-13 1525ESE 1.9 6.0------ 36.9- 36.9---
2024-06-13 1515 SE 2.9 6.0------ 36.9- 36.9---
2024-06-13 1505ESE 1.9 7.0------ 37.0- 37.0---
2024-06-13 1455NNW 1.9 4.1------ 37.2- 37.2---
2024-06-13 1445 NW 1.9 4.1------ 37.2- 37.2---
2024-06-13 1435ENE 1.9 5.1------ 36.9- 36.9---
2024-06-13 1425 E 1.9 7.0------ 36.9- 36.9---
2024-06-13 1415ENE 1.9 6.0------ 37.0- 37.0---
2024-06-13 1405 E 1.9 7.0------ 36.9- 36.9---
2024-06-13 1355 SE 4.1 8.0------ 36.7- 36.7---
2024-06-13 1345 SE 2.9 7.0------ 36.9- 36.9---
2024-06-13 1335ESE 4.1 7.0------ 36.7- 36.7---
2024-06-13 1325ESE 4.1 5.1------ 36.7- 36.7---
2024-06-13 1315ESE 2.9 4.1------ 36.7- 36.7---
2024-06-13 1305ESE 2.9 5.1------ 36.9- 36.9---
2024-06-13 1255ESE 2.9 5.1------ 36.9- 36.9---
2024-06-13 1245ESE 2.9 5.1------ 36.9- 36.9---
2024-06-13 1235 SE 2.9 5.1------ 36.9- 36.9---
2024-06-13 1225ESE 2.9 5.1------ 36.9- 36.9---
2024-06-13 1215 SE 2.9 4.1------ 37.2- 37.2---
2024-06-13 1205SSE 2.9 5.1------ 37.4- 37.4---
2024-06-13 1155SSE 2.9 6.0------ 37.2- 37.2---
2024-06-13 1145 SE 1.9 5.1------ 37.0- 37.0---
2024-06-13 1135SSE 1.9 5.1------ 37.2- 37.2---
2024-06-13 1125 S 4.1 8.0------ 37.4- 37.4---
2024-06-13 1115 S 2.9 8.0------ 37.6- 37.6---
2024-06-13 1105 S 4.1 7.0------ 37.8- 37.8---
2024-06-13 1055 S 7.0 9.9------ 37.8- 37.8---
2024-06-13 1045 S 7.0 9.9------ 37.8- 37.8---
2024-06-13 1035 S 6.0 8.9------ 37.6- 37.6---
2024-06-13 1025 S 5.1 7.0------ 37.6- 37.6---
2024-06-13 1015 S 2.9 6.0------ 37.6- 37.6---
2024-06-13 1005 S 5.1 8.0------ 37.6- 37.6---
2024-06-13 0955 S 5.1 7.0------ 37.6- 37.6---
2024-06-13 0945 S 5.1 8.0------ 37.6- 37.6---
2024-06-13 0925SSW 8.9 11.1------ 37.8- 37.8---
2024-06-13 0915SSW 8.9 11.1------ 37.8- 37.8---
2024-06-13 0855SSW 9.9 13.0------ 37.9- 37.9---
2024-06-13 0845SSW 9.9 14.0------ 37.9- 37.9---
2024-06-13 0835SSW 7.0 12.0------ 37.6- 37.6---
2024-06-13 0826SSW 6.0 8.9------ 37.6- 37.6---
2024-06-13 0816SSW 7.0 11.1------ 37.8- 37.8---
2024-06-13 0805SSW 7.0 11.1------ 37.8- 37.8---
2024-06-13 0755SSW 7.0 12.0------ 37.8- 37.8---